Ana Sayfa
METAR-TAF:

METAR-TAF

Havaalanları :

Tebük, Suudi Arabistan

Enlem: 28-22N, Boylam: 036-36E, yükseklik: 778 m

Güncel hava durumu gözlemi

Rapor saat 05:00 UTC de 56 dakika önce yapıldı.
Sakin rüzgar
Sıcaklık 7°C
Nem 61%
Basınç 1018 hPa
Görüş mesafesi 10 km veya daha fazla
1500 m altında bulut yok ve kümülonimbus yok

METAR: OETB 070500Z 00000KT CAVOK 07/00 Q1018 NOSIG

Saat: 08:56 (05:56 UTC)

Tahmin

Rapor saat 23:00 UTC de 6 saat ve 56 dakika önce yapıldı.
Ayın 07'si saat 00 UTC'den ayın 08'si saat 06 UTC'ye kadar geçerli Tahmin
Rüzgar kuzey/kuzeybatıdan 8 kt ve 18 kt'a kadar ani rüzgarlar
Görüş mesafesi: 7000 m
3000 ft yükseklikte az bulutlu
Geçici
ayın 07'si saat 06 UTC'den ayın 07'si saat 16 UTC'ye kadar
Görüş mesafesi: 5000 m
yaygın toz, Savrulan toz

TAF: OETB 062300Z 0700/0806 33008G18KT 7000 FEW030 TEMPO 0706/0716 5000 DU BLDU

4.000'den fazla havaalanı için hava durumu gözlemleri ve tahminleri (METAR ve TAF raporları).

Kullanılabilir istasyonlar harita üzerinde sarı ve kırmızı noktalarla gösterilir.

İstasyonun adını görmek için fareyi noktanın üzerinde gezdirin.

Sonrasında hava gözlem ve tahminlerini görmek için tıklayın.

Haritayı değiştirmek için: yaklaştırmak için siyah artı işaretli yeşil düğmeye ve uzaklaştırmak için de eksi işaretli düğmeye hızla tıklayın; bitişik haritalar için yeşil okları kullanın.


METAR-TAF: